sensor_id;sensor_type;location;lat;lon;timestamp;P1;durP1;ratioP1;P2;durP2;ratioP2
71622;SDS011;59473;53.214;5.728;2022-10-17T00:01:50;9.27;;;3.13;;
71622;SDS011;59473;53.214;5.728;2022-10-17T00:04:16;14.07;;;3.40;;
71622;SDS011;59473;53.214;5.728;2022-10-17T00:06:41;10.90;;;2.80;;
71622;SDS011;59473;53.214;5.728;2022-10-17T00:09:06;10.73;;;3.43;;
71622;SDS011;59473;53.214;5.728;2022-10-17T00:11:32;9.88;;;2.75;;
71622;SDS011;59473;53.214;5.728;2022-10-17T00:13:57;10.37;;;2.77;;
71622;SDS011;59473;53.214;5.728;2022-10-17T00:16:29;9.60;;;2.50;;
71622;SDS011;59473;53.214;5.728;2022-10-17T00:18:55;14.67;;;2.70;;
71622;SDS011;59473;53.214;5.728;2022-10-17T00:21:20;9.13;;;2.77;;
71622;SDS011;59473;53.214;5.728;2022-10-17T00:23:46;13.20;;;2.60;;
71622;SDS011;59473;53.214;5.728;2022-10-17T00:26:12;10.60;;;2.77;;
71622;SDS011;59473;53.214;5.728;2022-10-17T00:28:37;11.30;;;2.60;;
71622;SDS011;59473;53.214;5.728;2022-10-17T00:31:03;9.82;;;2.58;;
71622;SDS011;59473;53.214;5.728;2022-10-17T00:33:29;10.45;;;3.30;;
71622;SDS011;59473;53.214;5.728;2022-10-17T00:38:50;11.10;;;2.90;;
71622;SDS011;59473;53.214;5.728;2022-10-17T00:41:17;9.03;;;2.53;;
71622;SDS011;59473;53.214;5.728;2022-10-17T00:46:21;9.80;;;2.83;;
71622;SDS011;59473;53.214;5.728;2022-10-17T00:48:47;11.48;;;3.05;;
71622;SDS011;59473;53.214;5.728;2022-10-17T00:51:13;12.03;;;3.20;;
71622;SDS011;59473;53.214;5.728;2022-10-17T00:53:39;11.90;;;3.55;;
71622;SDS011;59473;53.214;5.728;2022-10-17T00:56:05;13.30;;;3.27;;
71622;SDS011;59473;53.214;5.728;2022-10-17T00:58:30;13.33;;;3.23;;
71622;SDS011;59473;53.214;5.728;2022-10-17T01:00:55;10.63;;;2.97;;
71622;SDS011;59473;53.214;5.728;2022-10-17T01:03:20;10.47;;;2.90;;
71622;SDS011;59473;53.214;5.728;2022-10-17T01:05:46;14.20;;;3.37;;
71622;SDS011;59473;53.214;5.728;2022-10-17T01:08:11;12.63;;;2.77;;
71622;SDS011;59473;53.214;5.728;2022-10-17T01:10:50;8.23;;;2.83;;
71622;SDS011;59473;53.214;5.728;2022-10-17T01:13:24;11.68;;;3.30;;
71622;SDS011;59473;53.214;5.728;2022-10-17T01:15:58;17.42;;;3.42;;
71622;SDS011;59473;53.214;5.728;2022-10-17T01:26:20;12.88;;;3.33;;
71622;SDS011;59473;53.214;5.728;2022-10-17T01:31:20;12.43;;;4.00;;
71622;SDS011;59473;53.214;5.728;2022-10-17T01:36:31;18.35;;;4.60;;
71622;SDS011;59473;53.214;5.728;2022-10-17T01:39:06;17.23;;;4.45;;
71622;SDS011;59473;53.214;5.728;2022-10-17T01:44:25;13.30;;;3.90;;
71622;SDS011;59473;53.214;5.728;2022-10-17T01:47:11;11.43;;;3.92;;
71622;SDS011;59473;53.214;5.728;2022-10-17T01:49:37;10.73;;;4.00;;
71622;SDS011;59473;53.214;5.728;2022-10-17T01:52:07;8.90;;;3.80;;
71622;SDS011;59473;53.214;5.728;2022-10-17T01:54:37;13.68;;;4.65;;
71622;SDS011;59473;53.214;5.728;2022-10-17T01:57:04;10.03;;;4.37;;
71622;SDS011;59473;53.214;5.728;2022-10-17T01:59:34;20.48;;;4.68;;
71622;SDS011;59473;53.214;5.728;2022-10-17T02:02:01;14.32;;;5.18;;
71622;SDS011;59473;53.214;5.728;2022-10-17T02:04:27;15.33;;;4.90;;
71622;SDS011;59473;53.214;5.728;2022-10-17T02:06:52;12.60;;;4.67;;
71622;SDS011;59473;53.214;5.728;2022-10-17T02:09:21;13.25;;;4.60;;
71622;SDS011;59473;53.214;5.728;2022-10-17T02:12:02;10.73;;;4.80;;
71622;SDS011;59473;53.214;5.728;2022-10-17T02:25:20;11.77;;;5.57;;
71622;SDS011;59473;53.214;5.728;2022-10-17T02:30:19;12.98;;;5.35;;
71622;SDS011;59473;53.214;5.728;2022-10-17T02:32:49;13.82;;;5.82;;
71622;SDS011;59473;53.214;5.728;2022-10-17T02:35:16;14.03;;;5.80;;
71622;SDS011;59473;53.214;5.728;2022-10-17T02:37:43;9.68;;;5.30;;
71622;SDS011;59473;53.214;5.728;2022-10-17T02:40:10;12.75;;;5.90;;
71622;SDS011;59473;53.214;5.728;2022-10-17T02:42:36;11.63;;;5.78;;
71622;SDS011;59473;53.214;5.728;2022-10-17T02:45:02;14.73;;;5.47;;
71622;SDS011;59473;53.214;5.728;2022-10-17T02:47:34;10.63;;;5.70;;
71622;SDS011;59473;53.214;5.728;2022-10-17T02:50:00;15.32;;;7.03;;
71622;SDS011;59473;53.214;5.728;2022-10-17T02:52:27;12.13;;;6.20;;
71622;SDS011;59473;53.214;5.728;2022-10-17T02:54:55;12.70;;;6.20;;
71622;SDS011;59473;53.214;5.728;2022-10-17T02:57:24;10.80;;;5.80;;
71622;SDS011;59473;53.214;5.728;2022-10-17T02:59:51;12.27;;;6.35;;
71622;SDS011;59473;53.214;5.728;2022-10-17T03:02:16;11.57;;;6.50;;
71622;SDS011;59473;53.214;5.728;2022-10-17T03:04:43;13.43;;;7.27;;
71622;SDS011;59473;53.214;5.728;2022-10-17T03:07:08;17.58;;;7.32;;
71622;SDS011;59473;53.214;5.728;2022-10-17T03:09:33;17.23;;;6.33;;
71622;SDS011;59473;53.214;5.728;2022-10-17T03:11:58;16.17;;;7.93;;
71622;SDS011;59473;53.214;5.728;2022-10-17T03:14:24;12.27;;;7.53;;
71622;SDS011;59473;53.214;5.728;2022-10-17T03:16:49;15.80;;;7.73;;
71622;SDS011;59473;53.214;5.728;2022-10-17T03:19:14;17.40;;;7.70;;
71622;SDS011;59473;53.214;5.728;2022-10-17T03:21:39;14.10;;;7.73;;
71622;SDS011;59473;53.214;5.728;2022-10-17T03:24:05;11.80;;;6.07;;
71622;SDS011;59473;53.214;5.728;2022-10-17T03:26:30;16.50;;;7.93;;
71622;SDS011;59473;53.214;5.728;2022-10-17T03:28:55;17.60;;;8.67;;
71622;SDS011;59473;53.214;5.728;2022-10-17T03:31:21;19.73;;;9.32;;
71622;SDS011;59473;53.214;5.728;2022-10-17T03:33:46;15.33;;;8.13;;
71622;SDS011;59473;53.214;5.728;2022-10-17T03:36:12;18.43;;;9.07;;
71622;SDS011;59473;53.214;5.728;2022-10-17T03:38:38;17.65;;;9.05;;
71622;SDS011;59473;53.214;5.728;2022-10-17T03:41:03;19.00;;;9.57;;
71622;SDS011;59473;53.214;5.728;2022-10-17T03:43:29;20.30;;;9.17;;
71622;SDS011;59473;53.214;5.728;2022-10-17T03:45:55;21.00;;;9.57;;
71622;SDS011;59473;53.214;5.728;2022-10-17T03:48:21;18.07;;;9.03;;
71622;SDS011;59473;53.214;5.728;2022-10-17T03:50:47;19.23;;;9.80;;
71622;SDS011;59473;53.214;5.728;2022-10-17T03:53:12;16.47;;;9.97;;
71622;SDS011;59473;53.214;5.728;2022-10-17T03:55:37;15.83;;;9.23;;
71622;SDS011;59473;53.214;5.728;2022-10-17T03:58:02;18.17;;;9.87;;
71622;SDS011;59473;53.214;5.728;2022-10-17T04:00:27;17.73;;;10.70;;
71622;SDS011;59473;53.214;5.728;2022-10-17T04:02:53;20.03;;;10.53;;
71622;SDS011;59473;53.214;5.728;2022-10-17T04:05:18;22.27;;;13.17;;
71622;SDS011;59473;53.214;5.728;2022-10-17T04:07:43;21.50;;;11.87;;
71622;SDS011;59473;53.214;5.728;2022-10-17T04:10:08;24.67;;;12.40;;
71622;SDS011;59473;53.214;5.728;2022-10-17T04:12:34;19.63;;;11.53;;
71622;SDS011;59473;53.214;5.728;2022-10-17T04:15:00;21.33;;;11.13;;
71622;SDS011;59473;53.214;5.728;2022-10-17T04:17:25;23.27;;;11.60;;
71622;SDS011;59473;53.214;5.728;2022-10-17T04:19:50;21.93;;;11.80;;
71622;SDS011;59473;53.214;5.728;2022-10-17T04:22:15;27.85;;;11.77;;
71622;SDS011;59473;53.214;5.728;2022-10-17T04:24:41;19.13;;;11.45;;
71622;SDS011;59473;53.214;5.728;2022-10-17T04:27:06;21.52;;;12.63;;
71622;SDS011;59473;53.214;5.728;2022-10-17T04:29:31;27.85;;;14.07;;
71622;SDS011;59473;53.214;5.728;2022-10-17T04:31:56;25.05;;;14.43;;
71622;SDS011;59473;53.214;5.728;2022-10-17T04:34:21;25.10;;;14.63;;
71622;SDS011;59473;53.214;5.728;2022-10-17T04:36:47;27.02;;;14.85;;
71622;SDS011;59473;53.214;5.728;2022-10-17T04:39:12;25.08;;;13.75;;
71622;SDS011;59473;53.214;5.728;2022-10-17T04:41:37;25.27;;;13.80;;
71622;SDS011;59473;53.214;5.728;2022-10-17T04:44:03;28.13;;;14.73;;
71622;SDS011;59473;53.214;5.728;2022-10-17T04:46:28;24.27;;;13.93;;
71622;SDS011;59473;53.214;5.728;2022-10-17T04:48:53;29.33;;;14.93;;
71622;SDS011;59473;53.214;5.728;2022-10-17T04:51:18;26.67;;;13.87;;
71622;SDS011;59473;53.214;5.728;2022-10-17T04:53:44;26.27;;;15.53;;
71622;SDS011;59473;53.214;5.728;2022-10-17T04:56:13;26.25;;;14.68;;
71622;SDS011;59473;53.214;5.728;2022-10-17T04:58:39;27.75;;;15.25;;
71622;SDS011;59473;53.214;5.728;2022-10-17T05:01:06;25.60;;;14.35;;
71622;SDS011;59473;53.214;5.728;2022-10-17T05:03:32;29.85;;;16.23;;
71622;SDS011;59473;53.214;5.728;2022-10-17T05:05:57;24.53;;;14.53;;
71622;SDS011;59473;53.214;5.728;2022-10-17T05:08:22;25.27;;;15.77;;
71622;SDS011;59473;53.214;5.728;2022-10-17T05:10:47;27.37;;;14.30;;
71622;SDS011;59473;53.214;5.728;2022-10-17T05:13:13;25.57;;;14.23;;
71622;SDS011;59473;53.214;5.728;2022-10-17T05:15:38;28.70;;;15.07;;
71622;SDS011;59473;53.214;5.728;2022-10-17T05:18:04;29.60;;;16.60;;
71622;SDS011;59473;53.214;5.728;2022-10-17T05:20:29;24.20;;;14.07;;
71622;SDS011;59473;53.214;5.728;2022-10-17T05:22:57;30.33;;;15.80;;
71622;SDS011;59473;53.214;5.728;2022-10-17T05:25:22;29.40;;;15.77;;
71622;SDS011;59473;53.214;5.728;2022-10-17T05:27:48;29.40;;;17.02;;
71622;SDS011;59473;53.214;5.728;2022-10-17T05:30:13;21.67;;;12.53;;
71622;SDS011;59473;53.214;5.728;2022-10-17T05:32:39;31.07;;;16.43;;
71622;SDS011;59473;53.214;5.728;2022-10-17T05:35:04;27.20;;;15.83;;
71622;SDS011;59473;53.214;5.728;2022-10-17T05:37:30;25.65;;;14.57;;
71622;SDS011;59473;53.214;5.728;2022-10-17T05:39:55;25.37;;;14.60;;
71622;SDS011;59473;53.214;5.728;2022-10-17T05:42:20;29.77;;;15.73;;
71622;SDS011;59473;53.214;5.728;2022-10-17T05:44:46;28.90;;;15.67;;
71622;SDS011;59473;53.214;5.728;2022-10-17T05:47:11;30.47;;;15.43;;
71622;SDS011;59473;53.214;5.728;2022-10-17T05:49:36;31.17;;;16.30;;
71622;SDS011;59473;53.214;5.728;2022-10-17T05:52:01;29.20;;;14.80;;
71622;SDS011;59473;53.214;5.728;2022-10-17T05:54:27;25.10;;;14.90;;
71622;SDS011;59473;53.214;5.728;2022-10-17T05:56:52;30.20;;;15.37;;
71622;SDS011;59473;53.214;5.728;2022-10-17T05:59:18;28.58;;;16.63;;
71622;SDS011;59473;53.214;5.728;2022-10-17T06:01:43;30.97;;;15.10;;
71622;SDS011;59473;53.214;5.728;2022-10-17T06:04:08;31.33;;;15.17;;
71622;SDS011;59473;53.214;5.728;2022-10-17T06:06:35;30.00;;;16.43;;
71622;SDS011;59473;53.214;5.728;2022-10-17T06:09:00;26.30;;;14.68;;
71622;SDS011;59473;53.214;5.728;2022-10-17T06:11:26;29.10;;;15.53;;
71622;SDS011;59473;53.214;5.728;2022-10-17T06:13:51;29.77;;;15.33;;
71622;SDS011;59473;53.214;5.728;2022-10-17T06:16:16;30.30;;;15.83;;
71622;SDS011;59473;53.214;5.728;2022-10-17T06:18:41;26.93;;;15.20;;
71622;SDS011;59473;53.214;5.728;2022-10-17T06:21:07;30.57;;;14.77;;
71622;SDS011;59473;53.214;5.728;2022-10-17T06:23:33;25.67;;;14.20;;
71622;SDS011;59473;53.214;5.728;2022-10-17T06:26:03;27.30;;;14.93;;
71622;SDS011;59473;53.214;5.728;2022-10-17T06:28:28;25.85;;;14.85;;
71622;SDS011;59473;53.214;5.728;2022-10-17T06:30:54;29.60;;;14.77;;
71622;SDS011;59473;53.214;5.728;2022-10-17T06:33:19;24.93;;;14.37;;
71622;SDS011;59473;53.214;5.728;2022-10-17T06:35:51;24.43;;;13.93;;
71622;SDS011;59473;53.214;5.728;2022-10-17T06:38:17;26.45;;;13.90;;
71622;SDS011;59473;53.214;5.728;2022-10-17T06:40:42;27.97;;;14.53;;
71622;SDS011;59473;53.214;5.728;2022-10-17T06:43:07;25.40;;;13.97;;
71622;SDS011;59473;53.214;5.728;2022-10-17T06:45:32;25.27;;;13.67;;
71622;SDS011;59473;53.214;5.728;2022-10-17T06:47:58;26.73;;;13.33;;
71622;SDS011;59473;53.214;5.728;2022-10-17T06:50:23;27.00;;;13.47;;
71622;SDS011;59473;53.214;5.728;2022-10-17T06:52:51;20.13;;;12.23;;
71622;SDS011;59473;53.214;5.728;2022-10-17T06:55:16;22.75;;;12.88;;
71622;SDS011;59473;53.214;5.728;2022-10-17T06:57:42;22.47;;;13.27;;
71622;SDS011;59473;53.214;5.728;2022-10-17T07:00:07;26.20;;;13.40;;
71622;SDS011;59473;53.214;5.728;2022-10-17T07:02:32;25.63;;;13.43;;
71622;SDS011;59473;53.214;5.728;2022-10-17T07:04:58;24.97;;;12.23;;
71622;SDS011;59473;53.214;5.728;2022-10-17T07:07:23;24.47;;;12.50;;
71622;SDS011;59473;53.214;5.728;2022-10-17T07:09:49;24.43;;;12.67;;
71622;SDS011;59473;53.214;5.728;2022-10-17T07:12:15;23.88;;;12.45;;
71622;SDS011;59473;53.214;5.728;2022-10-17T07:14:40;28.13;;;12.43;;
71622;SDS011;59473;53.214;5.728;2022-10-17T07:17:06;24.02;;;12.43;;
71622;SDS011;59473;53.214;5.728;2022-10-17T07:19:31;22.53;;;11.73;;
71622;SDS011;59473;53.214;5.728;2022-10-17T07:21:56;19.77;;;12.30;;
71622;SDS011;59473;53.214;5.728;2022-10-17T07:24:21;22.17;;;11.80;;
71622;SDS011;59473;53.214;5.728;2022-10-17T07:26:47;21.70;;;12.23;;
71622;SDS011;59473;53.214;5.728;2022-10-17T07:29:12;18.33;;;11.77;;
71622;SDS011;59473;53.214;5.728;2022-10-17T07:31:37;19.50;;;11.67;;
71622;SDS011;59473;53.214;5.728;2022-10-17T07:34:02;21.97;;;10.87;;
71622;SDS011;59473;53.214;5.728;2022-10-17T07:36:28;20.53;;;11.13;;
71622;SDS011;59473;53.214;5.728;2022-10-17T07:38:53;18.47;;;10.37;;
71622;SDS011;59473;53.214;5.728;2022-10-17T07:41:18;19.83;;;10.40;;
71622;SDS011;59473;53.214;5.728;2022-10-17T07:43:43;16.43;;;9.80;;
71622;SDS011;59473;53.214;5.728;2022-10-17T07:46:09;22.20;;;10.07;;
71622;SDS011;59473;53.214;5.728;2022-10-17T07:48:35;16.90;;;9.07;;
71622;SDS011;59473;53.214;5.728;2022-10-17T07:51:01;17.90;;;9.63;;
71622;SDS011;59473;53.214;5.728;2022-10-17T07:53:27;17.60;;;10.15;;
71622;SDS011;59473;53.214;5.728;2022-10-17T07:55:52;18.97;;;9.70;;
71622;SDS011;59473;53.214;5.728;2022-10-17T07:58:17;17.53;;;10.00;;
71622;SDS011;59473;53.214;5.728;2022-10-17T08:00:43;20.07;;;10.17;;
71622;SDS011;59473;53.214;5.728;2022-10-17T08:03:12;15.98;;;9.55;;
71622;SDS011;59473;53.214;5.728;2022-10-17T08:05:37;15.67;;;9.00;;
71622;SDS011;59473;53.214;5.728;2022-10-17T08:08:02;21.57;;;9.33;;
71622;SDS011;59473;53.214;5.728;2022-10-17T08:10:27;15.63;;;8.97;;
71622;SDS011;59473;53.214;5.728;2022-10-17T08:12:54;14.82;;;8.10;;
71622;SDS011;59473;53.214;5.728;2022-10-17T08:15:19;16.63;;;8.70;;
71622;SDS011;59473;53.214;5.728;2022-10-17T08:17:44;14.10;;;8.43;;
71622;SDS011;59473;53.214;5.728;2022-10-17T08:20:10;16.63;;;8.32;;
71622;SDS011;59473;53.214;5.728;2022-10-17T08:22:35;14.32;;;8.85;;
71622;SDS011;59473;53.214;5.728;2022-10-17T08:25:00;17.03;;;8.67;;
71622;SDS011;59473;53.214;5.728;2022-10-17T08:27:26;15.53;;;8.73;;
71622;SDS011;59473;53.214;5.728;2022-10-17T08:29:52;16.48;;;9.02;;
71622;SDS011;59473;53.214;5.728;2022-10-17T08:32:22;15.57;;;8.50;;
71622;SDS011;59473;53.214;5.728;2022-10-17T08:34:49;16.83;;;8.50;;
71622;SDS011;59473;53.214;5.728;2022-10-17T08:37:14;16.93;;;7.80;;
71622;SDS011;59473;53.214;5.728;2022-10-17T08:39:40;14.03;;;8.40;;
71622;SDS011;59473;53.214;5.728;2022-10-17T08:47:34;13.27;;;8.95;;
71622;SDS011;59473;53.214;5.728;2022-10-17T08:50:01;19.67;;;9.82;;
71622;SDS011;59473;53.214;5.728;2022-10-17T08:52:29;26.38;;;13.73;;
71622;SDS011;59473;53.214;5.728;2022-10-17T08:54:57;20.43;;;11.60;;
71622;SDS011;59473;53.214;5.728;2022-10-17T08:57:23;20.60;;;13.68;;
71622;SDS011;59473;53.214;5.728;2022-10-17T08:59:49;18.40;;;12.10;;
71622;SDS011;59473;53.214;5.728;2022-10-17T09:13:07;18.80;;;10.23;;
71622;SDS011;59473;53.214;5.728;2022-10-17T09:18:14;16.92;;;10.20;;
71622;SDS011;59473;53.214;5.728;2022-10-17T09:20:42;20.15;;;12.75;;
71622;SDS011;59473;53.214;5.728;2022-10-17T09:25:39;22.10;;;11.47;;
71622;SDS011;59473;53.214;5.728;2022-10-17T09:30:41;18.00;;;10.68;;
71622;SDS011;59473;53.214;5.728;2022-10-17T09:33:10;24.02;;;10.05;;
71622;SDS011;59473;53.214;5.728;2022-10-17T09:35:36;19.15;;;11.60;;
71622;SDS011;59473;53.214;5.728;2022-10-17T09:38:02;21.37;;;11.03;;
71622;SDS011;59473;53.214;5.728;2022-10-17T09:40:31;19.20;;;9.73;;
71622;SDS011;59473;53.214;5.728;2022-10-17T09:42:57;21.38;;;10.32;;
71622;SDS011;59473;53.214;5.728;2022-10-17T09:45:24;24.17;;;11.00;;
71622;SDS011;59473;53.214;5.728;2022-10-17T09:47:54;21.92;;;11.57;;
71622;SDS011;59473;53.214;5.728;2022-10-17T09:50:25;22.67;;;11.18;;
71622;SDS011;59473;53.214;5.728;2022-10-17T09:52:51;22.03;;;10.93;;
71622;SDS011;59473;53.214;5.728;2022-10-17T09:55:19;22.52;;;11.00;;
71622;SDS011;59473;53.214;5.728;2022-10-17T09:57:52;25.05;;;12.20;;
71622;SDS011;59473;53.214;5.728;2022-10-17T10:00:22;27.48;;;11.75;;
71622;SDS011;59473;53.214;5.728;2022-10-17T10:02:48;30.75;;;12.30;;
71622;SDS011;59473;53.214;5.728;2022-10-17T10:05:19;24.53;;;11.43;;
71622;SDS011;59473;53.214;5.728;2022-10-17T10:07:59;25.57;;;11.40;;
71622;SDS011;59473;53.214;5.728;2022-10-17T10:10:26;26.45;;;11.93;;
71622;SDS011;59473;53.214;5.728;2022-10-17T10:13:02;28.13;;;11.88;;
71622;SDS011;59473;53.214;5.728;2022-10-17T10:15:32;24.67;;;11.40;;
71622;SDS011;59473;53.214;5.728;2022-10-17T10:17:57;25.10;;;12.57;;
71622;SDS011;59473;53.214;5.728;2022-10-17T10:20:27;34.50;;;16.40;;
71622;SDS011;59473;53.214;5.728;2022-10-17T10:23:06;39.13;;;17.60;;
71622;SDS011;59473;53.214;5.728;2022-10-17T10:25:31;146.70;;;37.15;;
71622;SDS011;59473;53.214;5.728;2022-10-17T10:27:57;116.47;;;28.23;;
71622;SDS011;59473;53.214;5.728;2022-10-17T10:30:27;130.00;;;29.73;;
71622;SDS011;59473;53.214;5.728;2022-10-17T10:32:53;54.60;;;19.23;;
71622;SDS011;59473;53.214;5.728;2022-10-17T10:35:19;30.40;;;13.75;;
71622;SDS011;59473;53.214;5.728;2022-10-17T10:37:46;22.80;;;13.07;;
71622;SDS011;59473;53.214;5.728;2022-10-17T10:42:38;26.27;;;13.80;;
71622;SDS011;59473;53.214;5.728;2022-10-17T10:47:38;27.92;;;14.23;;
71622;SDS011;59473;53.214;5.728;2022-10-17T10:55:34;27.70;;;11.82;;
71622;SDS011;59473;53.214;5.728;2022-10-17T10:58:05;28.67;;;12.50;;
71622;SDS011;59473;53.214;5.728;2022-10-17T11:00:33;26.65;;;13.50;;
71622;SDS011;59473;53.214;5.728;2022-10-17T11:03:09;28.67;;;12.95;;
71622;SDS011;59473;53.214;5.728;2022-10-17T11:05:55;23.60;;;11.63;;
71622;SDS011;59473;53.214;5.728;2022-10-17T11:11:11;30.70;;;12.07;;
71622;SDS011;59473;53.214;5.728;2022-10-17T11:13:59;26.17;;;12.57;;
71622;SDS011;59473;53.214;5.728;2022-10-17T11:16:36;27.33;;;11.60;;
71622;SDS011;59473;53.214;5.728;2022-10-17T11:19:07;25.83;;;11.80;;
71622;SDS011;59473;53.214;5.728;2022-10-17T11:21:59;25.73;;;12.60;;
71622;SDS011;59473;53.214;5.728;2022-10-17T11:27:09;26.27;;;12.23;;
71622;SDS011;59473;53.214;5.728;2022-10-17T11:29:38;27.90;;;12.87;;
71622;SDS011;59473;53.214;5.728;2022-10-17T11:32:05;22.98;;;12.23;;
71622;SDS011;59473;53.214;5.728;2022-10-17T11:34:34;24.07;;;11.30;;
71622;SDS011;59473;53.214;5.728;2022-10-17T11:37:12;23.65;;;10.90;;
71622;SDS011;59473;53.214;5.728;2022-10-17T11:42:04;22.90;;;13.03;;
71622;SDS011;59473;53.214;5.728;2022-10-17T11:44:35;21.40;;;11.68;;
71622;SDS011;59473;53.214;5.728;2022-10-17T11:47:03;22.45;;;11.15;;
71622;SDS011;59473;53.214;5.728;2022-10-17T11:49:33;19.40;;;9.90;;
71622;SDS011;59473;53.214;5.728;2022-10-17T11:54:50;25.25;;;10.93;;
71622;SDS011;59473;53.214;5.728;2022-10-17T12:02:31;24.17;;;10.70;;
71622;SDS011;59473;53.214;5.728;2022-10-17T12:05:00;18.23;;;10.10;;
71622;SDS011;59473;53.214;5.728;2022-10-17T12:07:33;20.73;;;8.95;;
71622;SDS011;59473;53.214;5.728;2022-10-17T12:12:42;19.15;;;9.30;;
71622;SDS011;59473;53.214;5.728;2022-10-17T12:20:28;24.00;;;11.07;;
71622;SDS011;59473;53.214;5.728;2022-10-17T12:25:35;21.63;;;9.00;;
71622;SDS011;59473;53.214;5.728;2022-10-17T12:30:57;22.20;;;9.27;;
71622;SDS011;59473;53.214;5.728;2022-10-17T12:35:48;21.57;;;8.80;;
71622;SDS011;59473;53.214;5.728;2022-10-17T12:38:21;26.83;;;11.10;;
71622;SDS011;59473;53.214;5.728;2022-10-17T12:40:48;24.77;;;10.73;;
71622;SDS011;59473;53.214;5.728;2022-10-17T12:45:51;18.40;;;9.10;;
71622;SDS011;59473;53.214;5.728;2022-10-17T12:49:03;15.38;;;7.35;;
71622;SDS011;59473;53.214;5.728;2022-10-17T12:53:33;15.50;;;6.87;;
71622;SDS011;59473;53.214;5.728;2022-10-17T12:56:01;21.80;;;6.68;;
71622;SDS011;59473;53.214;5.728;2022-10-17T12:58:26;15.20;;;6.00;;
71622;SDS011;59473;53.214;5.728;2022-10-17T13:00:53;13.13;;;5.15;;
71622;SDS011;59473;53.214;5.728;2022-10-17T13:03:20;12.57;;;5.25;;
71622;SDS011;59473;53.214;5.728;2022-10-17T13:05:47;13.03;;;4.70;;
71622;SDS011;59473;53.214;5.728;2022-10-17T13:08:19;14.95;;;4.63;;
71622;SDS011;59473;53.214;5.728;2022-10-17T13:10:45;14.30;;;4.85;;
71622;SDS011;59473;53.214;5.728;2022-10-17T13:15:37;15.00;;;4.90;;
71622;SDS011;59473;53.214;5.728;2022-10-17T13:18:03;12.53;;;4.67;;
71622;SDS011;59473;53.214;5.728;2022-10-17T13:20:29;15.20;;;4.70;;
71622;SDS011;59473;53.214;5.728;2022-10-17T13:22:55;21.55;;;6.60;;
71622;SDS011;59473;53.214;5.728;2022-10-17T13:25:21;12.75;;;4.57;;
71622;SDS011;59473;53.214;5.728;2022-10-17T13:27:47;17.27;;;5.60;;
71622;SDS011;59473;53.214;5.728;2022-10-17T13:30:32;16.48;;;5.88;;
71622;SDS011;59473;53.214;5.728;2022-10-17T13:32:58;19.58;;;6.50;;
71622;SDS011;59473;53.214;5.728;2022-10-17T13:37:49;16.20;;;6.10;;
71622;SDS011;59473;53.214;5.728;2022-10-17T13:40:15;21.80;;;5.60;;
71622;SDS011;59473;53.214;5.728;2022-10-17T13:42:41;12.60;;;4.95;;
71622;SDS011;59473;53.214;5.728;2022-10-17T13:45:49;18.40;;;5.83;;
71622;SDS011;59473;53.214;5.728;2022-10-17T13:47:54;12.63;;;4.75;;
71622;SDS011;59473;53.214;5.728;2022-10-17T13:50:25;15.93;;;4.63;;
71622;SDS011;59473;53.214;5.728;2022-10-17T13:55:31;12.50;;;4.82;;
71622;SDS011;59473;53.214;5.728;2022-10-17T13:58:07;18.93;;;4.47;;
71622;SDS011;59473;53.214;5.728;2022-10-17T14:00:33;16.05;;;4.25;;
71622;SDS011;59473;53.214;5.728;2022-10-17T14:02:58;14.40;;;3.60;;
71622;SDS011;59473;53.214;5.728;2022-10-17T14:05:24;13.70;;;4.50;;
71622;SDS011;59473;53.214;5.728;2022-10-17T14:10:22;17.20;;;5.00;;
71622;SDS011;59473;53.214;5.728;2022-10-17T14:12:48;14.98;;;5.20;;
71622;SDS011;59473;53.214;5.728;2022-10-17T14:15:14;13.80;;;5.23;;
71622;SDS011;59473;53.214;5.728;2022-10-17T14:17:40;14.13;;;4.60;;
71622;SDS011;59473;53.214;5.728;2022-10-17T14:20:05;15.98;;;4.47;;
71622;SDS011;59473;53.214;5.728;2022-10-17T14:22:34;13.93;;;3.83;;
71622;SDS011;59473;53.214;5.728;2022-10-17T14:25:00;12.10;;;4.50;;
71622;SDS011;59473;53.214;5.728;2022-10-17T14:29:59;17.45;;;3.85;;
71622;SDS011;59473;53.214;5.728;2022-10-17T14:32:27;17.08;;;4.32;;
71622;SDS011;59473;53.214;5.728;2022-10-17T14:34:53;14.70;;;4.30;;
71622;SDS011;59473;53.214;5.728;2022-10-17T14:39:48;13.48;;;3.15;;
71622;SDS011;59473;53.214;5.728;2022-10-17T14:42:20;13.52;;;3.83;;
71622;SDS011;59473;53.214;5.728;2022-10-17T14:44:49;9.37;;;3.60;;
71622;SDS011;59473;53.214;5.728;2022-10-17T14:47:18;12.18;;;3.92;;
71622;SDS011;59473;53.214;5.728;2022-10-17T14:49:47;9.95;;;3.40;;
71622;SDS011;59473;53.214;5.728;2022-10-17T14:54:44;16.42;;;3.92;;
71622;SDS011;59473;53.214;5.728;2022-10-17T14:57:17;11.27;;;3.75;;
71622;SDS011;59473;53.214;5.728;2022-10-17T14:59:42;17.10;;;3.92;;
71622;SDS011;59473;53.214;5.728;2022-10-17T15:02:08;19.10;;;4.23;;
71622;SDS011;59473;53.214;5.728;2022-10-17T15:04:33;17.40;;;4.20;;
71622;SDS011;59473;53.214;5.728;2022-10-17T15:06:58;12.63;;;4.00;;
71622;SDS011;59473;53.214;5.728;2022-10-17T15:09:24;11.23;;;3.90;;
71622;SDS011;59473;53.214;5.728;2022-10-17T15:11:52;10.15;;;3.70;;
71622;SDS011;59473;53.214;5.728;2022-10-17T15:14:17;14.47;;;3.07;;
71622;SDS011;59473;53.214;5.728;2022-10-17T15:16:43;29.30;;;5.03;;
71622;SDS011;59473;53.214;5.728;2022-10-17T15:19:08;11.07;;;4.00;;
71622;SDS011;59473;53.214;5.728;2022-10-17T15:21:34;16.43;;;5.43;;
71622;SDS011;59473;53.214;5.728;2022-10-17T15:24:00;20.63;;;8.77;;
71622;SDS011;59473;53.214;5.728;2022-10-17T15:26:28;15.57;;;4.50;;
71622;SDS011;59473;53.214;5.728;2022-10-17T15:28:54;15.90;;;3.88;;
71622;SDS011;59473;53.214;5.728;2022-10-17T15:31:20;25.73;;;12.07;;
71622;SDS011;59473;53.214;5.728;2022-10-17T15:33:45;17.92;;;6.70;;
71622;SDS011;59473;53.214;5.728;2022-10-17T15:36:37;13.43;;;5.43;;
71622;SDS011;59473;53.214;5.728;2022-10-17T15:39:02;12.75;;;5.78;;
71622;SDS011;59473;53.214;5.728;2022-10-17T15:41:28;17.63;;;6.30;;
71622;SDS011;59473;53.214;5.728;2022-10-17T15:43:54;14.93;;;4.50;;
71622;SDS011;59473;53.214;5.728;2022-10-17T15:46:23;13.73;;;3.97;;
71622;SDS011;59473;53.214;5.728;2022-10-17T15:48:50;10.90;;;4.18;;
71622;SDS011;59473;53.214;5.728;2022-10-17T15:51:15;14.37;;;4.20;;
71622;SDS011;59473;53.214;5.728;2022-10-17T15:53:41;19.98;;;3.97;;
71622;SDS011;59473;53.214;5.728;2022-10-17T15:56:06;12.93;;;4.53;;
71622;SDS011;59473;53.214;5.728;2022-10-17T15:58:36;19.43;;;5.90;;
71622;SDS011;59473;53.214;5.728;2022-10-17T16:01:02;15.55;;;5.20;;
71622;SDS011;59473;53.214;5.728;2022-10-17T16:03:28;24.92;;;7.60;;
71622;SDS011;59473;53.214;5.728;2022-10-17T16:05:54;28.55;;;9.60;;
71622;SDS011;59473;53.214;5.728;2022-10-17T16:08:19;28.33;;;9.43;;
71622;SDS011;59473;53.214;5.728;2022-10-17T16:10:44;20.93;;;6.93;;
71622;SDS011;59473;53.214;5.728;2022-10-17T16:13:16;16.87;;;6.63;;
71622;SDS011;59473;53.214;5.728;2022-10-17T16:15:42;14.00;;;4.30;;
71622;SDS011;59473;53.214;5.728;2022-10-17T16:18:07;15.97;;;5.20;;
71622;SDS011;59473;53.214;5.728;2022-10-17T16:20:33;13.93;;;4.80;;
71622;SDS011;59473;53.214;5.728;2022-10-17T16:22:58;16.20;;;4.77;;
71622;SDS011;59473;53.214;5.728;2022-10-17T16:25:26;20.80;;;4.93;;
71622;SDS011;59473;53.214;5.728;2022-10-17T16:27:53;20.30;;;4.70;;
71622;SDS011;59473;53.214;5.728;2022-10-17T16:30:18;21.70;;;4.53;;
71622;SDS011;59473;53.214;5.728;2022-10-17T16:32:43;11.95;;;4.20;;